Winnipeg, Manitoba

9:06 AM CST on November 23, 2014 (GMT -0600)
FortWhyte Alive | Change Station
CLOSE
Current Station
Personal Weather Station
Location: Winnipeg, MB
Elevation: 781 ft
Nearby Weather Stations

Elev 781 ft 49.82 °N, 97.23 °W | Updated 23 seconds ago

Overcast
Overcast
32.2 °F
Feels Like 27 °F
N
5.0
Wind Variable Wind from SE
Gusts 5.0 mph

Today is forecast to be nearly the same temperature as yesterday.

Today
High -- | Low -- °F
--% Chance of Precip.
Yesterday
High -- | Low -- °F
Precip. -- in
7:53 AM 4:36 PM
New Moon, 1% visible
Pressure 29.40 in
Visibility 5.0 miles
Clouds Overcast 400 ft
Windchill 27 °F
Dew Point 28.2 °F
Humidity 85%
Rainfall 0.00 in
Snow Depth Not available.
UV 0 out of 12
Pollen Not available.
Air Quality Not available.
Flu Activity Not available.
SPECI CYWG 231438Z 26004KT 5SM BR OVC004 M01/M02 A2936 RMK ST8 SLP955

More Conditions Fewer Conditions

Pressure 29.40 in
Visibility 5.0 miles
Clouds Overcast 400 ft
Windchill 27 °F
Dew Point 28.2 °F
Humidity 85%
Rainfall 0.00 in
Snow Depth Not available.
UV 0 out of 12
Pollen Not available.
Air Quality Not available.
Flu Activity Not available.
SPECI CYWG 231438Z 26004KT 5SM BR OVC004 M01/M02 A2936 RMK ST8 SLP955

More Conditions Fewer Conditions

10-Day Weather Forecast

Almanac

Astronomy

Nov. 23, 2014 Rise Set
Actual Time
Civil Twilight
Nautical Twilight
Astronomical Twilight
Moon
Length of Visible Light
Length of Day
Tomorrow will be .
, % of the Moon is Illuminated

Today's Extremes

Country Highs Country Lows

Community

WunderPhotos

Upload Photos

1,773,085 photos uploaded!

WunderBlogs® & News

Nearby

Air Quality

  Air Quality AQ Index Pollutant
Not available.

Snow Depth

Station Depth Elevation

Earthquake Activity

City Distance Mag. Time & Date
Minimum magnitude displayed is 2.5.

Coastal Water Temperatures

Place Temperature

Nearby Weather Stations